Time;durP1;ratioP1;P1;durP2;ratioP2;P2;SDS_P1;SDS_P2;PMS_P1;PMS_P2;Temp;Humidity;BMP_temperature;BMP_pressure;BME280_temperature;BME280_humidity;BME280_pressure;Samples;Min_cycle;Max_cycle;Signal;HPM_P1;HPM_P2
2022/05/01 00:00:51;;;;;;;;;;;;;;;;;;5090421;28;19912;-65
2022/05/01 00:03:33;;;;;;;;;;;;;;;;;;5080706;28;19923;-63
2022/05/01 00:05:59;;;;;;;;;;;;;;;;;;5091752;28;19970;-65
2022/05/01 00:08:25;;;;;;;;;;;;;;;;;;5091357;28;20372;-64
2022/05/01 00:10:51;;;;;;;;;;;;;;;;;;5092098;28;19918;-66
2022/05/01 00:13:17;;;;;;;;;;;;;;;;;;5083602;28;20269;-61
2022/05/01 00:15:43;;;;;;;;;;;;;;;;;;5091597;28;19912;-65
2022/05/01 00:18:09;;;;;;;;;;;;;;;;;;5092245;28;20333;-65
2022/05/01 00:20:35;;;;;;;;;;;;;;;;;;5082993;28;19908;-65
2022/05/01 00:23:01;;;;;;;;;;;;;;;;;;5091218;28;19966;-66
2022/05/01 00:25:27;;;;;;;;;;;;;;;;;;5083275;28;19913;-64
2022/05/01 00:27:53;;;;;;;;;;;;;;;;;;5091505;28;19915;-64
2022/05/01 00:30:19;;;;;;;;;;;;;;;;;;5092143;28;20002;-61
2022/05/01 00:38:15;;;;;;;;;;;;;;;;;;5090294;28;20326;-63
2022/05/01 00:40:41;;;;;;;;;;;;;;;;;;5083893;28;20445;-66
2022/05/01 00:43:07;;;;;;;;;;;;;;;;;;5090919;28;20078;-62
2022/05/01 00:45:33;;;;;;;;;;;;;;;;;;5109423;28;19916;-64
2022/05/01 00:47:58;;;;;;;;;;;;;;;;;;5086839;28;19909;-63
2022/05/01 00:50:24;;;;;;;;;;;;;;;;;;5089130;28;19966;-65
2022/05/01 00:52:50;;;;;;;;;;;;;;;;;;5092124;28;20934;-63
2022/05/01 00:55:16;;;;;;;;;;;;;;;;;;5090663;28;20269;-62
2022/05/01 00:57:42;;;;;;;;;;;;;;;;;;5090902;28;19915;-61
2022/05/01 01:00:08;;;;;;;;;;;;;;;;;;5091297;28;19915;-64
2022/05/01 01:02:34;;;;;;;;;;;;;;;;;;5092871;28;20465;-62
2022/05/01 01:05:00;;;;;;;;;;;;;;;;;;5092690;28;20322;-62
2022/05/01 01:07:26;;;;;;;;;;;;;;;;;;5091996;28;20006;-64
2022/05/01 01:09:52;;;;;;;;;;;;;;;;;;5092107;28;20007;-64
2022/05/01 01:15:03;;;;;;;;;;;;;;;;;;5094134;28;20421;-65
2022/05/01 01:17:29;;;;;;;;;;;;;;;;;;5092862;28;19966;-63
2022/05/01 01:19:55;;;;;;;;;;;;;;;;;;5092068;28;20273;-62
2022/05/01 01:22:21;;;;;;;;;;;;;;;;;;5092423;28;20011;-65
2022/05/01 01:24:47;;;;;;;;;;;;;;;;;;5092402;28;20292;-62
2022/05/01 01:27:13;;;;;;;;;;;;;;;;;;5092396;28;19954;-63
2022/05/01 01:32:25;;;;;;;;;;;;;;;;;;5093770;28;19914;-63
2022/05/01 01:34:51;;;;;;;;;;;;;;;;;;5092353;28;19912;-62
2022/05/01 01:37:17;;;;;;;;;;;;;;;;;;5092551;28;19908;-63
2022/05/01 01:39:42;;;;;;;;;;;;;;;;;;5092036;28;20299;-64
2022/05/01 01:42:08;;;;;;;;;;;;;;;;;;5092503;28;19912;-62
2022/05/01 01:44:34;;;;;;;;;;;;;;;;;;5092594;28;20260;-63
2022/05/01 01:47:00;;;;;;;;;;;;;;;;;;5092596;28;19940;-65
2022/05/01 01:49:26;;;;;;;;;;;;;;;;;;5091873;28;19916;-65
2022/05/01 01:51:52;;;;;;;;;;;;;;;;;;5092462;28;20336;-65
2022/05/01 01:54:18;;;;;;;;;;;;;;;;;;5092493;28;19910;-66
2022/05/01 01:56:44;;;;;;;;;;;;;;;;;;5094028;28;19908;-65
2022/05/01 01:59:11;;;;;;;;;;;;;;;;;;5091883;28;20352;-65
2022/05/01 02:01:37;;;;;;;;;;;;;;;;;;5092332;28;20256;-62
2022/05/01 02:04:04;;;;;;;;;;;;;;;;;;5092263;28;19938;-66
2022/05/01 02:06:30;;;;;;;;;;;;;;;;;;5092430;28;19991;-65
2022/05/01 02:08:58;;;;;;;;;;;;;;;;;;5091659;28;20040;-64
2022/05/01 02:11:24;;;;;;;;;;;;;;;;;;5092297;28;19914;-62
2022/05/01 02:13:50;;;;;;;;;;;;;;;;;;5092274;28;19984;-63
2022/05/01 02:16:17;;;;;;;;;;;;;;;;;;5092019;28;19908;-65
2022/05/01 02:18:43;;;;;;;;;;;;;;;;;;5091783;28;19909;-62
2022/05/01 02:23:54;;;;;;;;;;;;;;;;;;5094709;28;20023;-65
2022/05/01 02:26:20;;;;;;;;;;;;;;;;;;5095892;28;19915;-63
2022/05/01 02:28:46;;;;;;;;;;;;;;;;;;5095415;28;19908;-66
2022/05/01 02:31:12;;;;;;;;;;;;;;;;;;5095904;28;20379;-65
2022/05/01 02:33:38;;;;;;;;;;;;;;;;;;5095825;28;19908;-65
2022/05/01 02:36:07;;;;;;;;;;;;;;;;;;5095755;28;19915;-64
2022/05/01 02:38:34;;;;;;;;;;;;;;;;;;5095383;28;19908;-61
2022/05/01 02:41:00;;;;;;;;;;;;;;;;;;5095565;28;19966;-65
2022/05/01 02:43:25;;;;;;;;;;;;;;;;;;5095662;28;19998;-62
2022/05/01 02:45:51;;;;;;;;;;;;;;;;;;5095511;28;20328;-64
2022/05/01 02:48:17;;;;;;;;;;;;;;;;;;5095347;28;20353;-65
2022/05/01 02:50:43;;;;;;;;;;;;;;;;;;5095104;28;19953;-61
2022/05/01 02:53:09;;;;;;;;;;;;;;;;;;5096774;28;19912;-62
2022/05/01 02:55:35;;;;;;;;;;;;;;;;;;5095540;28;19908;-66
2022/05/01 02:58:02;;;;;;;;;;;;;;;;;;5095193;28;19908;-63
2022/05/01 03:00:28;;;;;;;;;;;;;;;;;;5095020;28;20310;-63
2022/05/01 03:02:55;;;;;;;;;;;;;;;;;;5095120;28;19916;-65
2022/05/01 03:05:21;;;;;;;;;;;;;;;;;;5095274;28;19958;-61
2022/05/01 03:07:48;;;;;;;;;;;;;;;;;;5095024;28;19962;-65
2022/05/01 03:10:14;;;;;;;;;;;;;;;;;;5094709;28;20252;-63
2022/05/01 03:12:40;;;;;;;;;;;;;;;;;;5095041;28;19915;-65
2022/05/01 03:15:06;;;;;;;;;;;;;;;;;;5095187;28;19954;-62
2022/05/01 03:22:10;;;;;;;;;;;;;;;;;;5095100;28;19919;-63
2022/05/01 03:23:02;;;;;;;;;;;;;;;;;;5096002;28;19919;-63
2022/05/01 03:25:28;;;;;;;;;;;;;;;;;;5095005;28;19908;-64
2022/05/01 03:27:54;;;;;;;;;;;;;;;;;;5094732;28;19930;-62
2022/05/01 03:30:22;;;;;;;;;;;;;;;;;;5095175;28;20078;-63
2022/05/01 03:32:48;;;;;;;;;;;;;;;;;;5094951;28;19908;-62
2022/05/01 03:35:14;;;;;;;;;;;;;;;;;;5094264;28;19915;-62
2022/05/01 03:37:41;;;;;;;;;;;;;;;;;;5094619;28;20296;-65
2022/05/01 03:40:07;;;;;;;;;;;;;;;;;;5093935;28;19904;-64
2022/05/01 03:42:33;;;;;;;;;;;;;;;;;;5094422;28;19939;-62
2022/05/01 03:44:58;;;;;;;;;;;;;;;;;;5094439;28;19915;-63
2022/05/01 03:47:24;;;;;;;;;;;;;;;;;;5095763;28;20015;-65
2022/05/01 03:49:50;;;;;;;;;;;;;;;;;;5093822;28;20347;-63
2022/05/01 03:52:16;;;;;;;;;;;;;;;;;;5094455;28;19912;-63
2022/05/01 03:54:42;;;;;;;;;;;;;;;;;;5094379;28;19908;-64
2022/05/01 03:57:09;;;;;;;;;;;;;;;;;;5094134;28;19912;-64
2022/05/01 03:59:35;;;;;;;;;;;;;;;;;;5093710;28;20330;-61
2022/05/01 04:02:01;;;;;;;;;;;;;;;;;;5093991;28;19923;-63
2022/05/01 04:04:27;;;;;;;;;;;;;;;;;;5094035;28;19908;-64
2022/05/01 04:06:53;;;;;;;;;;;;;;;;;;5093851;28;20258;-65
2022/05/01 04:09:21;;;;;;;;;;;;;;;;;;5093451;28;19959;-63
2022/05/01 04:11:46;;;;;;;;;;;;;;;;;;5093874;28;19908;-64
2022/05/01 04:14:12;;;;;;;;;;;;;;;;;;5093833;28;19916;-62
2022/05/01 04:16:38;;;;;;;;;;;;;;;;;;5093852;28;19973;-65
2022/05/01 04:19:04;;;;;;;;;;;;;;;;;;5093193;28;19908;-63
2022/05/01 04:21:30;;;;;;;;;;;;;;;;;;5093860;28;19908;-64
2022/05/01 04:23:56;;;;;;;;;;;;;;;;;;5094871;28;19912;-65
2022/05/01 04:26:22;;;;;;;;;;;;;;;;;;5093955;28;19978;-65
2022/05/01 04:31:32;;;;;;;;;;;;;;;;;;5094943;28;20015;-66
2022/05/01 04:33:58;;;;;;;;;;;;;;;;;;5093216;28;19973;-62
2022/05/01 04:36:25;;;;;;;;;;;;;;;;;;5093292;28;19916;-66
2022/05/01 04:38:51;;;;;;;;;;;;;;;;;;5092735;28;20406;-66
2022/05/01 04:41:18;;;;;;;;;;;;;;;;;;5093425;28;19952;-62
2022/05/01 04:43:44;;;;;;;;;;;;;;;;;;5093044;28;19919;-63
2022/05/01 04:46:09;;;;;;;;;;;;;;;;;;5092405;28;19912;-63
2022/05/01 04:48:35;;;;;;;;;;;;;;;;;;5092629;28;19916;-63
2022/05/01 04:51:01;;;;;;;;;;;;;;;;;;5094093;28;20361;-65
2022/05/01 04:53:28;;;;;;;;;;;;;;;;;;5093119;28;19908;-64
2022/05/01 04:55:54;;;;;;;;;;;;;;;;;;5093121;28;20284;-61
2022/05/01 04:58:24;;;;;;;;;;;;;;;;;;5092942;28;20417;-64
2022/05/01 05:00:50;;;;;;;;;;;;;;;;;;5092822;28;20007;-63
2022/05/01 05:03:16;;;;;;;;;;;;;;;;;;5092953;28;20018;-63
2022/05/01 05:05:42;;;;;;;;;;;;;;;;;;5092941;28;20251;-70
2022/05/01 05:10:53;;;;;;;;;;;;;;;;;;5094010;28;20322;-70
2022/05/01 05:13:24;;;;;;;;;;;;;;;;;;5092889;28;19951;-69
2022/05/01 05:15:50;;;;;;;;;;;;;;;;;;5092879;28;20272;-69
2022/05/01 05:18:15;;;;;;;;;;;;;;;;;;5092770;28;19904;-71
2022/05/01 05:20:42;;;;;;;;;;;;;;;;;;5093826;28;19908;-70
2022/05/01 05:23:08;;;;;;;;;;;;;;;;;;5093843;28;20011;-69
2022/05/01 05:25:34;;;;;;;;;;;;;;;;;;5092759;28;19954;-68
2022/05/01 05:28:00;;;;;;;;;;;;;;;;;;5092360;28;19916;-68
2022/05/01 05:30:26;;;;;;;;;;;;;;;;;;5092418;28;19904;-69
2022/05/01 05:32:52;;;;;;;;;;;;;;;;;;5092786;28;19915;-71
2022/05/01 05:35:17;;;;;;;;;;;;;;;;;;5092713;28;20340;-70
2022/05/01 05:37:43;;;;;;;;;;;;;;;;;;5092629;28;19909;-71
2022/05/01 05:40:09;;;;;;;;;;;;;;;;;;5092061;28;20333;-70
2022/05/01 05:42:36;;;;;;;;;;;;;;;;;;5092479;28;19912;-71
2022/05/01 05:45:02;;;;;;;;;;;;;;;;;;5092395;28;19967;-71
2022/05/01 05:47:28;;;;;;;;;;;;;;;;;;5092478;28;19916;-72
2022/05/01 05:49:54;;;;;;;;;;;;;;;;;;5091954;28;19916;-71
2022/05/01 05:52:20;;;;;;;;;;;;;;;;;;5092466;28;19996;-72
2022/05/01 05:54:46;;;;;;;;;;;;;;;;;;5092557;28;19908;-70
2022/05/01 05:57:12;;;;;;;;;;;;;;;;;;5092667;28;19942;-70
2022/05/01 05:59:38;;;;;;;;;;;;;;;;;;5096035;28;19908;-71
2022/05/01 06:02:04;;;;;;;;;;;;;;;;;;5096532;28;19969;-70
2022/05/01 06:04:30;;;;;;;;;;;;;;;;;;5096537;28;19908;-70
2022/05/01 06:06:55;;;;;;;;;;;;;;;;;;5096431;28;19908;-69
2022/05/01 06:09:21;;;;;;;;;;;;;;;;;;5095834;28;19908;-73
2022/05/01 06:11:47;;;;;;;;;;;;;;;;;;5096284;28;19908;-72
2022/05/01 06:14:13;;;;;;;;;;;;;;;;;;5096161;28;19920;-70
2022/05/01 06:16:39;;;;;;;;;;;;;;;;;;5097342;28;19912;-70
2022/05/01 06:19:05;;;;;;;;;;;;;;;;;;5095434;28;20403;-71
2022/05/01 06:21:31;;;;;;;;;;;;;;;;;;5095906;28;20348;-71
2022/05/01 06:23:57;;;;;;;;;;;;;;;;;;5096922;28;19965;-69
2022/05/01 06:26:23;;;;;;;;;;;;;;;;;;5096050;28;19908;-63
2022/05/01 06:28:49;;;;;;;;;;;;;;;;;;5095461;28;19908;-62
2022/05/01 06:31:15;;;;;;;;;;;;;;;;;;5095766;28;20375;-63
2022/05/01 06:33:41;;;;;;;;;;;;;;;;;;5095832;28;19947;-62
2022/05/01 06:36:07;;;;;;;;;;;;;;;;;;5095683;28;19931;-63
2022/05/01 06:38:33;;;;;;;;;;;;;;;;;;5094206;28;19916;-61
2022/05/01 06:40:59;;;;;;;;;;;;;;;;;;5096297;28;19919;-63
2022/05/01 06:43:27;;;;;;;;;;;;;;;;;;5095464;28;19916;-66
2022/05/01 06:45:53;;;;;;;;;;;;;;;;;;5095423;28;19939;-64
2022/05/01 06:48:19;;;;;;;;;;;;;;;;;;5096607;28;19919;-60
2022/05/01 06:50:45;;;;;;;;;;;;;;;;;;5091864;28;19912;-63
2022/05/01 06:53:11;;;;;;;;;;;;;;;;;;5088136;28;20011;-64
2022/05/01 06:55:37;;;;;;;;;;;;;;;;;;5093777;28;19950;-67
2022/05/01 06:58:03;;;;;;;;;;;;;;;;;;5094828;28;19912;-66
2022/05/01 07:00:29;;;;;;;;;;;;;;;;;;5094881;28;19904;-64
2022/05/01 07:02:55;;;;;;;;;;;;;;;;;;5088530;28;19922;-63
2022/05/01 07:05:21;;;;;;;;;;;;;;;;;;5074942;28;20438;-65
2022/05/01 07:07:46;;;;;;;;;;;;;;;;;;5081665;28;19918;-65
2022/05/01 07:10:12;;;;;;;;;;;;;;;;;;5106093;28;20363;-63
2022/05/01 07:12:38;;;;;;;;;;;;;;;;;;5091616;28;20265;-65
2022/05/01 07:15:04;;;;;;;;;;;;;;;;;;5088124;28;19912;-64
2022/05/01 07:17:30;;;;;;;;;;;;;;;;;;5090093;28;19920;-62
2022/05/01 07:19:56;;;;;;;;;;;;;;;;;;5079904;28;20368;-62
2022/05/01 07:22:22;;;;;;;;;;;;;;;;;;5094690;28;20007;-63
2022/05/01 07:24:48;;;;;;;;;;;;;;;;;;5094725;28;20273;-63
2022/05/01 07:27:14;;;;;;;;;;;;;;;;;;5086418;28;19912;-62
2022/05/01 07:29:39;;;;;;;;;;;;;;;;;;5093420;28;19957;-65
2022/05/01 07:32:05;;;;;;;;;;;;;;;;;;5094535;28;19908;-63
2022/05/01 07:34:31;;;;;;;;;;;;;;;;;;5092657;28;19966;-61
2022/05/01 07:36:57;;;;;;;;;;;;;;;;;;5093937;28;19952;-66
2022/05/01 07:39:23;;;;;;;;;;;;;;;;;;5086860;28;20367;-66
2022/05/01 07:41:49;;;;;;;;;;;;;;;;;;5092529;28;19973;-66
2022/05/01 07:44:15;;;;;;;;;;;;;;;;;;5094103;28;19912;-63
2022/05/01 07:46:41;;;;;;;;;;;;;;;;;;5094195;28;19958;-64
2022/05/01 07:49:07;;;;;;;;;;;;;;;;;;5092510;28;19916;-65
2022/05/01 07:51:32;;;;;;;;;;;;;;;;;;5084746;28;20400;-65
2022/05/01 07:53:58;;;;;;;;;;;;;;;;;;5093991;28;19991;-63
2022/05/01 07:56:24;;;;;;;;;;;;;;;;;;5093852;28;19912;-62
2022/05/01 07:58:50;;;;;;;;;;;;;;;;;;5092951;28;19916;-65
2022/05/01 08:01:16;;;;;;;;;;;;;;;;;;5089875;28;19912;-62
2022/05/01 08:06:27;;;;;;;;;;;;;;;;;;5091596;28;20011;-64
2022/05/01 08:08:53;;;;;;;;;;;;;;;;;;5092753;28;20359;-62
2022/05/01 08:11:19;;;;;;;;;;;;;;;;;;5085253;28;19908;-61
2022/05/01 08:13:45;;;;;;;;;;;;;;;;;;5093922;28;19915;-65
2022/05/01 08:16:10;;;;;;;;;;;;;;;;;;5092221;28;20357;-63
2022/05/01 08:21:21;;;;;;;;;;;;;;;;;;5094115;28;19915;-62
2022/05/01 08:23:48;;;;;;;;;;;;;;;;;;5092298;28;20004;-64
2022/05/01 08:26:14;;;;;;;;;;;;;;;;;;5090110;28;19916;-66
2022/05/01 08:28:40;;;;;;;;;;;;;;;;;;5094185;28;20227;-65
2022/05/01 08:31:06;;;;;;;;;;;;;;;;;;5093277;28;20395;-63
2022/05/01 08:33:32;;;;;;;;;;;;;;;;;;5093460;28;19908;-61
2022/05/01 08:35:58;;;;;;;;;;;;;;;;;;5092018;28;19981;-64
2022/05/01 08:38:24;;;;;;;;;;;;;;;;;;5092353;28;20337;-62
2022/05/01 08:40:50;;;;;;;;;;;;;;;;;;5089400;28;19916;-65
2022/05/01 08:43:16;;;;;;;;;;;;;;;;;;5092949;28;19973;-64
2022/05/01 08:45:42;;;;;;;;;;;;;;;;;;5093054;28;20352;-66
2022/05/01 08:48:08;;;;;;;;;;;;;;;;;;5092785;28;19965;-66
2022/05/01 08:50:34;;;;;;;;;;;;;;;;;;5090351;28;20002;-63
2022/05/01 08:53:00;;;;;;;;;;;;;;;;;;5090803;28;20431;-63
2022/05/01 08:55:26;;;;;;;;;;;;;;;;;;5092186;28;19973;-65
2022/05/01 08:57:52;;;;;;;;;;;;;;;;;;5093617;28;19916;-63
2022/05/01 09:00:18;;;;;;;;;;;;;;;;;;5090861;28;19919;-66
2022/05/01 09:02:44;;;;;;;;;;;;;;;;;;5087830;28;20389;-64
2022/05/01 09:05:11;;;;;;;;;;;;;;;;;;5087177;28;19912;-64
2022/05/01 09:07:39;;;;;;;;;;;;;;;;;;5091006;28;19909;-62
2022/05/01 09:10:05;;;;;;;;;;;;;;;;;;5092069;28;19915;-65
2022/05/01 09:15:15;;;;;;;;;;;;;;;;;;5094049;28;20416;-64
2022/05/01 09:17:41;;;;;;;;;;;;;;;;;;5092682;28;19912;-65
2022/05/01 09:20:07;;;;;;;;;;;;;;;;;;5092278;28;20006;-63
2022/05/01 09:22:33;;;;;;;;;;;;;;;;;;5092670;28;19927;-62
2022/05/01 09:24:59;;;;;;;;;;;;;;;;;;5092637;28;19912;-63
2022/05/01 09:27:29;;;;;;;;;;;;;;;;;;5091260;28;19912;-64
2022/05/01 09:29:55;;;;;;;;;;;;;;;;;;5090607;28;19912;-61
2022/05/01 09:32:21;;;;;;;;;;;;;;;;;;5091521;28;19908;-64
2022/05/01 09:34:47;;;;;;;;;;;;;;;;;;5091676;28;20466;-65
2022/05/01 09:37:13;;;;;;;;;;;;;;;;;;5092576;28;20010;-61
2022/05/01 09:39:39;;;;;;;;;;;;;;;;;;5091877;28;20279;-65
2022/05/01 09:42:05;;;;;;;;;;;;;;;;;;5085426;28;19916;-62
2022/05/01 09:44:31;;;;;;;;;;;;;;;;;;5090327;28;19912;-64
2022/05/01 09:46:56;;;;;;;;;;;;;;;;;;5092276;28;20276;-64
2022/05/01 09:49:22;;;;;;;;;;;;;;;;;;5091812;28;19912;-66
2022/05/01 09:51:48;;;;;;;;;;;;;;;;;;5086744;28;19958;-65
2022/05/01 09:54:14;;;;;;;;;;;;;;;;;;5093530;28;19912;-66
2022/05/01 09:56:40;;;;;;;;;;;;;;;;;;5092051;28;19924;-65
2022/05/01 09:59:06;;;;;;;;;;;;;;;;;;5094368;28;19924;-63
2022/05/01 10:01:32;;;;;;;;;;;;;;;;;;5113909;28;20403;-63
2022/05/01 10:03:58;;;;;;;;;;;;;;;;;;5100779;28;19969;-66
2022/05/01 10:06:24;;;;;;;;;;;;;;;;;;5105366;28;19915;-67
2022/05/01 10:08:50;;;;;;;;;;;;;;;;;;5103438;28;19909;-65
2022/05/01 10:11:17;;;;;;;;;;;;;;;;;;5091099;28;20428;-60
2022/05/01 10:13:46;;;;;;;;;;;;;;;;;;5091969;28;19916;-63
2022/05/01 10:16:15;;;;;;;;;;;;;;;;;;5092064;28;19912;-62
2022/05/01 10:18:41;;;;;;;;;;;;;;;;;;5090105;28;20004;-63
2022/05/01 10:21:07;;;;;;;;;;;;;;;;;;5092890;28;19978;-60
2022/05/01 10:23:33;;;;;;;;;;;;;;;;;;5091826;28;20694;-62
2022/05/01 10:25:59;;;;;;;;;;;;;;;;;;5091965;28;19933;-61
2022/05/01 10:28:25;;;;;;;;;;;;;;;;;;5086078;28;20011;-61
2022/05/01 10:33:36;;;;;;;;;;;;;;;;;;5073050;28;19916;-63
2022/05/01 10:36:02;;;;;;;;;;;;;;;;;;5084062;28;20285;-62
2022/05/01 10:38:28;;;;;;;;;;;;;;;;;;5085392;28;19912;-62
2022/05/01 10:40:54;;;;;;;;;;;;;;;;;;5086152;28;19916;-63
2022/05/01 10:43:20;;;;;;;;;;;;;;;;;;5090398;28;19923;-61
2022/05/01 10:45:46;;;;;;;;;;;;;;;;;;5099773;28;20299;-65
2022/05/01 10:48:17;;;;;;;;;;;;;;;;;;5093854;28;19923;-64
2022/05/01 10:50:43;;;;;;;;;;;;;;;;;;5094355;28;19912;-61
2022/05/01 10:53:09;;;;;;;;;;;;;;;;;;5094693;28;19916;-63
2022/05/01 10:55:35;;;;;;;;;;;;;;;;;;5090706;28;19999;-60
2022/05/01 10:58:01;;;;;;;;;;;;;;;;;;5095062;28;19958;-63
2022/05/01 11:00:26;;;;;;;;;;;;;;;;;;5094945;28;20230;-60
2022/05/01 11:02:56;;;;;;;;;;;;;;;;;;5095125;28;19923;-65
2022/05/01 11:05:22;;;;;;;;;;;;;;;;;;5095283;28;19912;-62
2022/05/01 11:07:48;;;;;;;;;;;;;;;;;;5094623;28;19912;-60
2022/05/01 11:10:14;;;;;;;;;;;;;;;;;;5094648;28;19919;-63
2022/05/01 11:12:40;;;;;;;;;;;;;;;;;;5094979;28;19952;-63
2022/05/01 11:15:06;;;;;;;;;;;;;;;;;;5094904;28;20264;-62
2022/05/01 11:17:32;;;;;;;;;;;;;;;;;;5094834;28;19908;-62
2022/05/01 11:19:58;;;;;;;;;;;;;;;;;;5094089;28;19999;-62
2022/05/01 11:22:24;;;;;;;;;;;;;;;;;;5094741;28;19934;-62
2022/05/01 11:24:50;;;;;;;;;;;;;;;;;;5096092;28;19912;-61
2022/05/01 11:27:16;;;;;;;;;;;;;;;;;;5094814;28;20369;-60
2022/05/01 11:29:42;;;;;;;;;;;;;;;;;;5094276;28;19915;-62
2022/05/01 11:32:08;;;;;;;;;;;;;;;;;;5094837;28;19908;-61
2022/05/01 11:34:34;;;;;;;;;;;;;;;;;;5094697;28;19918;-63
2022/05/01 11:37:03;;;;;;;;;;;;;;;;;;5094663;28;19957;-61
2022/05/01 11:39:29;;;;;;;;;;;;;;;;;;5094264;28;19908;-60
2022/05/01 11:41:55;;;;;;;;;;;;;;;;;;5094635;28;19908;-61
2022/05/01 11:44:21;;;;;;;;;;;;;;;;;;5091202;28;19973;-63
2022/05/01 11:46:47;;;;;;;;;;;;;;;;;;5094068;28;19912;-63
2022/05/01 11:49:13;;;;;;;;;;;;;;;;;;5093828;28;20307;-66
2022/05/01 11:51:39;;;;;;;;;;;;;;;;;;5094227;28;19908;-61
2022/05/01 11:54:05;;;;;;;;;;;;;;;;;;5094306;28;19931;-63
2022/05/01 12:04:45;;;;;;;;;;;;;;;;;;5095512;28;19916;-64
2022/05/01 12:07:21;;;;;;;;;;;;;;;;;;5094078;28;19915;-64
2022/05/01 12:09:47;;;;;;;;;;;;;;;;;;5093368;28;19908;-63
2022/05/01 12:12:13;;;;;;;;;;;;;;;;;;5094006;28;20347;-63
2022/05/01 12:14:39;;;;;;;;;;;;;;;;;;5095178;28;19961;-65
2022/05/01 12:17:05;;;;;;;;;;;;;;;;;;5093834;28;19908;-70
2022/05/01 12:19:31;;;;;;;;;;;;;;;;;;5093380;28;20324;-73
2022/05/01 12:21:57;;;;;;;;;;;;;;;;;;5093542;28;20413;-69
2022/05/01 12:24:23;;;;;;;;;;;;;;;;;;5093557;28;19999;-70
2022/05/01 12:26:49;;;;;;;;;;;;;;;;;;5093756;28;19913;-71
2022/05/01 12:29:15;;;;;;;;;;;;;;;;;;5093014;28;19953;-73
2022/05/01 12:31:41;;;;;;;;;;;;;;;;;;5093416;28;20366;-71
2022/05/01 12:34:07;;;;;;;;;;;;;;;;;;5093483;28;19908;-69
2022/05/01 12:36:33;;;;;;;;;;;;;;;;;;5093392;28;19931;-73
2022/05/01 12:38:58;;;;;;;;;;;;;;;;;;5092889;28;19915;-73
2022/05/01 12:44:09;;;;;;;;;;;;;;;;;;5094610;28;19919;-71
2022/05/01 12:46:36;;;;;;;;;;;;;;;;;;5092557;28;19908;-70
2022/05/01 12:49:02;;;;;;;;;;;;;;;;;;5090589;28;19916;-68
2022/05/01 12:51:28;;;;;;;;;;;;;;;;;;5091234;28;19962;-71
2022/05/01 12:53:54;;;;;;;;;;;;;;;;;;5091114;28;19912;-72
2022/05/01 12:56:20;;;;;;;;;;;;;;;;;;5091259;28;19931;-72
2022/05/01 12:58:46;;;;;;;;;;;;;;;;;;5090576;28;19908;-72
2022/05/01 13:01:12;;;;;;;;;;;;;;;;;;5092174;28;19914;-72
2022/05/01 13:03:38;;;;;;;;;;;;;;;;;;5093002;28;20229;-70
2022/05/01 13:06:04;;;;;;;;;;;;;;;;;;5092879;28;19912;-70
2022/05/01 13:08:30;;;;;;;;;;;;;;;;;;5092059;28;19909;-70
2022/05/01 13:10:56;;;;;;;;;;;;;;;;;;5092755;28;19909;-74
2022/05/01 13:13:22;;;;;;;;;;;;;;;;;;5092857;28;19912;-70
2022/05/01 13:15:47;;;;;;;;;;;;;;;;;;5092854;28;20302;-70
2022/05/01 13:18:13;;;;;;;;;;;;;;;;;;5092631;28;19994;-69
2022/05/01 13:20:39;;;;;;;;;;;;;;;;;;5092412;28;19915;-71
2022/05/01 13:23:05;;;;;;;;;;;;;;;;;;5092835;28;20465;-69
2022/05/01 13:25:31;;;;;;;;;;;;;;;;;;5085743;28;19977;-71
2022/05/01 13:27:57;;;;;;;;;;;;;;;;;;5085711;28;19947;-72
2022/05/01 13:30:23;;;;;;;;;;;;;;;;;;5091850;28;19908;-69
2022/05/01 13:32:49;;;;;;;;;;;;;;;;;;5092498;28;20356;-69
2022/05/01 13:35:15;;;;;;;;;;;;;;;;;;5092748;28;20356;-70
2022/05/01 13:37:41;;;;;;;;;;;;;;;;;;5092253;28;20369;-70
2022/05/01 13:45:36;;;;;;;;;;;;;;;;;;5082082;28;19982;-63
2022/05/01 13:48:02;;;;;;;;;;;;;;;;;;5072041;28;20357;-66
2022/05/01 13:50:28;;;;;;;;;;;;;;;;;;5071740;28;19912;-64
2022/05/01 13:52:54;;;;;;;;;;;;;;;;;;5072125;28;19931;-63
2022/05/01 13:55:20;;;;;;;;;;;;;;;;;;5072315;28;19908;-63
2022/05/01 13:57:46;;;;;;;;;;;;;;;;;;5086230;28;19915;-63
2022/05/01 14:00:13;;;;;;;;;;;;;;;;;;5091879;28;19909;-66
2022/05/01 14:02:41;;;;;;;;;;;;;;;;;;5092405;28;19919;-65
2022/05/01 14:05:08;;;;;;;;;;;;;;;;;;5072213;28;19931;-65
2022/05/01 14:07:34;;;;;;;;;;;;;;;;;;5088753;28;19956;-64
2022/05/01 14:10:00;;;;;;;;;;;;;;;;;;5089104;28;20369;-65
2022/05/01 14:12:26;;;;;;;;;;;;;;;;;;5091295;28;20357;-65
2022/05/01 14:14:51;;;;;;;;;;;;;;;;;;5091510;28;19999;-65
2022/05/01 14:17:17;;;;;;;;;;;;;;;;;;5093649;28;20006;-65
2022/05/01 14:19:43;;;;;;;;;;;;;;;;;;5093388;28;19920;-64
2022/05/01 14:22:09;;;;;;;;;;;;;;;;;;5095931;28;20458;-65
2022/05/01 14:24:35;;;;;;;;;;;;;;;;;;5096007;28;20264;-65
2022/05/01 14:27:01;;;;;;;;;;;;;;;;;;5095874;28;19908;-63
2022/05/01 14:29:27;;;;;;;;;;;;;;;;;;5095643;28;19915;-65
2022/05/01 14:31:53;;;;;;;;;;;;;;;;;;5095559;28;19953;-64
2022/05/01 14:34:19;;;;;;;;;;;;;;;;;;5093495;28;19965;-71
2022/05/01 14:36:45;;;;;;;;;;;;;;;;;;5092500;28;20318;-70
2022/05/01 14:39:11;;;;;;;;;;;;;;;;;;5094888;28;19909;-67
2022/05/01 14:41:37;;;;;;;;;;;;;;;;;;5095592;28;20238;-67
2022/05/01 14:44:03;;;;;;;;;;;;;;;;;;5095659;28;20065;-67
2022/05/01 14:46:29;;;;;;;;;;;;;;;;;;5104267;28;20344;-70
2022/05/01 14:48:55;;;;;;;;;;;;;;;;;;5105881;28;19945;-67
2022/05/01 14:51:21;;;;;;;;;;;;;;;;;;5110279;28;19918;-68
2022/05/01 14:53:47;;;;;;;;;;;;;;;;;;5100184;28;19924;-68
2022/05/01 14:56:16;;;;;;;;;;;;;;;;;;5115981;28;20007;-68
2022/05/01 15:06:57;;;;;;;;;;;;;;;;;;5086843;28;20384;-66
2022/05/01 15:09:23;;;;;;;;;;;;;;;;;;5092334;28;20285;-65
2022/05/01 15:11:49;;;;;;;;;;;;;;;;;;5082631;28;19916;-65
2022/05/01 15:14:15;;;;;;;;;;;;;;;;;;5090824;28;19915;-63
2022/05/01 15:16:41;;;;;;;;;;;;;;;;;;5095145;28;19908;-68
2022/05/01 15:19:12;;;;;;;;;;;;;;;;;;5092674;28;19927;-69
2022/05/01 15:24:24;;;;;;;;;;;;;;;;;;5094489;28;19923;-67
2022/05/01 15:26:49;;;;;;;;;;;;;;;;;;5094670;28;19912;-64
2022/05/01 15:29:15;;;;;;;;;;;;;;;;;;5094432;28;19954;-64
2022/05/01 15:31:42;;;;;;;;;;;;;;;;;;5094376;28;19966;-66
2022/05/01 15:34:08;;;;;;;;;;;;;;;;;;5094873;28;19908;-65
2022/05/01 15:36:35;;;;;;;;;;;;;;;;;;5094880;28;19908;-63
2022/05/01 15:39:00;;;;;;;;;;;;;;;;;;5094060;28;19904;-63
2022/05/01 15:41:26;;;;;;;;;;;;;;;;;;5094788;28;20355;-66
2022/05/01 15:43:52;;;;;;;;;;;;;;;;;;5094485;28;19912;-63
2022/05/01 15:46:21;;;;;;;;;;;;;;;;;;5094679;28;19919;-64
2022/05/01 15:54:16;;;;;;;;;;;;;;;;;;5095772;28;19961;-65
2022/05/01 15:56:42;;;;;;;;;;;;;;;;;;5094291;28;19908;-61
2022/05/01 15:59:08;;;;;;;;;;;;;;;;;;5093901;28;19908;-64
2022/05/01 16:01:34;;;;;;;;;;;;;;;;;;5094358;28;19958;-65
2022/05/01 16:04:00;;;;;;;;;;;;;;;;;;5094155;28;19965;-64
2022/05/01 16:06:26;;;;;;;;;;;;;;;;;;5094376;28;19912;-67
2022/05/01 16:08:52;;;;;;;;;;;;;;;;;;5094890;28;19909;-63
2022/05/01 16:11:18;;;;;;;;;;;;;;;;;;5094014;28;19915;-63
2022/05/01 16:13:44;;;;;;;;;;;;;;;;;;5093612;28;19908;-66
2022/05/01 16:16:10;;;;;;;;;;;;;;;;;;5093965;28;20425;-62
2022/05/01 16:18:36;;;;;;;;;;;;;;;;;;5093603;28;19991;-64
2022/05/01 16:21:02;;;;;;;;;;;;;;;;;;5093712;28;20044;-65
2022/05/01 16:23:28;;;;;;;;;;;;;;;;;;5093763;28;20012;-63
2022/05/01 16:25:54;;;;;;;;;;;;;;;;;;5093644;28;19908;-64
2022/05/01 16:28:20;;;;;;;;;;;;;;;;;;5093516;28;19912;-63
2022/05/01 16:30:49;;;;;;;;;;;;;;;;;;5093526;28;20368;-62
2022/05/01 16:33:15;;;;;;;;;;;;;;;;;;5093540;28;19931;-64
2022/05/01 16:35:43;;;;;;;;;;;;;;;;;;5093373;28;20253;-62
2022/05/01 16:38:08;;;;;;;;;;;;;;;;;;5093121;28;19904;-62
2022/05/01 16:40:34;;;;;;;;;;;;;;;;;;5092855;28;19933;-65
2022/05/01 16:43:00;;;;;;;;;;;;;;;;;;5092152;28;19912;-64
2022/05/01 16:45:29;;;;;;;;;;;;;;;;;;5086673;28;19912;-67
2022/05/01 16:47:55;;;;;;;;;;;;;;;;;;5090905;28;19972;-65
2022/05/01 16:50:21;;;;;;;;;;;;;;;;;;5084473;28;20027;-67
2022/05/01 16:52:47;;;;;;;;;;;;;;;;;;5086602;28;20011;-65
2022/05/01 16:55:13;;;;;;;;;;;;;;;;;;5089772;28;19956;-64
2022/05/01 16:57:39;;;;;;;;;;;;;;;;;;5091554;28;19969;-61
2022/05/01 17:00:06;;;;;;;;;;;;;;;;;;5092440;28;19909;-66
2022/05/01 17:02:32;;;;;;;;;;;;;;;;;;5092983;28;19974;-66
2022/05/01 17:04:58;;;;;;;;;;;;;;;;;;5093033;28;20344;-63
2022/05/01 17:07:25;;;;;;;;;;;;;;;;;;5091508;28;19920;-67
2022/05/01 17:09:50;;;;;;;;;;;;;;;;;;5092412;28;19961;-66
2022/05/01 17:12:16;;;;;;;;;;;;;;;;;;5089942;28;19919;-65
2022/05/01 17:14:42;;;;;;;;;;;;;;;;;;5091950;28;19919;-68
2022/05/01 17:17:09;;;;;;;;;;;;;;;;;;5090036;28;19994;-66
2022/05/01 17:19:35;;;;;;;;;;;;;;;;;;5090287;28;20383;-71
2022/05/01 17:22:02;;;;;;;;;;;;;;;;;;5092209;28;20360;-72
2022/05/01 17:24:29;;;;;;;;;;;;;;;;;;5092100;28;19916;-71
2022/05/01 17:26:56;;;;;;;;;;;;;;;;;;5091220;28;19991;-71
2022/05/01 17:29:22;;;;;;;;;;;;;;;;;;5087803;28;19908;-71
2022/05/01 17:31:48;;;;;;;;;;;;;;;;;;5099399;28;19907;-71
2022/05/01 17:34:17;;;;;;;;;;;;;;;;;;5106593;28;19923;-71
2022/05/01 17:36:44;;;;;;;;;;;;;;;;;;5092157;28;19940;-72
2022/05/01 17:39:10;;;;;;;;;;;;;;;;;;5085775;28;19912;-71
2022/05/01 17:41:36;;;;;;;;;;;;;;;;;;5090994;28;19919;-71
2022/05/01 17:44:02;;;;;;;;;;;;;;;;;;5090268;28;20443;-64